Hangaard, Minnesota
Current Conditions -  °F | °C
As of 7:55 PM on Saturday 20 Dec 2014 (Local Time) from KFSE Reporting Station
Haze Haze  
Wind Chill: -7°   Ceiling: 400
Heat Index: -2°   Visibility: 4mi
Dew Point: -3°   Wind: 10mph
Humidity: 93%   Direction: 150°SSE
Pressure: 29.93"   Gusts: NA
Location:  47.8469°N, 95.4815°W
Report Text: KFSE 210155Z AUTO 15009KT 4SM BR OVC004 M02/M03 A2993 RMK AO2
Loading
Personal Weather Stations






























Interactive Weather Map New forecast layout! Learn more

10-Day Weather Forecast

Advertisements
Track Severe Weather on mobile